Atlantic - Newfoundland: Past 24 Hour Conditions

 

Port aux Basques

09:30 PM NST 27 February 2015
Disclaimer

This table is a summary of hourly weather conditions for the past 24 hours.
Please note that these observations might not always be representative of weather conditions over their associated marine area.

Date / Time
(NST)
Wind(knots) Conditions Visibility(km) Pressure(kPa) Air tempC) Relative humidity(%) Dew pointC) Wind Chill
27 February 2015
21:30 W 30 gust 35 Mainly Clear 2 102.3 -12 73 -16 -25
20:30 W 28 gust 34 Partly Cloudy 6 102.3 -13 73 -17 -26
19:30 W 27 gust 34 Mostly Cloudy 13 102.2 -12 73 -16 -25
18:30 W 30 Light Snow 1 102.0 -12 84 -14 -24
17:30 W 25 gust 34 Light Snow 0.3 101.9 -11 87 -13 -23
16:30 W 24 gust 31 Light Snow 2 101.8 -10 74 -14 -22
15:30 W 28 gust 33 Light Snow 1 101.8 -10 83 -13 -22
14:30 W 27 Partly Cloudy 6 101.7 -9 72 -13 -20
13:30 WNW 24 gust 31 Mostly Cloudy 10 101.6 -9 72 -13 -19
12:30 WNW 23 gust 29 Light Snow 1 101.6 -9 84 -11 -19
11:30 WNW 20 Light Snow 15 101.5 -8 70 -12 -18
10:30 WNW 17 Cloudy 15 101.5 -8 72 -12 -17
9:30 W 20 Light Snow 15 101.5 -8 77 -11 -18
8:30 WNW 15 Light Snow 11 101.4 -8 75 -12 -17
7:30 NW 10 Light Snow 3 101.3 -9 85 -11 -16
6:30 NW 6 Light Snow 4 101.3 -10 89 -11 -15
5:30 NW 5 Cloudy 8 101.3 -11 85 -13 -16
4:30 NW 4 Clear 15 101.3 -11 84 -13 -15
3:30 NW 4 Mostly Cloudy 15 101.2 -11 84 -13 -16
2:30 NW 4 Mostly Cloudy 15 101.2 -11 84 -13 -15
1:30 NW 6 Light Snow 8 101.2 -11 82 -13 -17
0:30 WNW 7 Cloudy 15 101.3 -11 77 -14 -17
26 February 2015
23:30 WNW 8 Mainly Clear 15 101.3 -11 74 -15 -18
22:30 W 11 Cloudy 13 101.4 -11 78 -14 -19
21:30 W 13 Mostly Cloudy 15 101.4 -11 76 -14 -20

Zoom-in to make a selection

Map of Atlantic - Newfoundland marine weather areas Southwestern Grand Banks - 44138 Banquereau - 44139 Tail of the Bank - 44140 Nickerson Bank - 44251 Northeast Burgeo Bank - 44255 Blanc-Sablon Airport Cap Whittle Chevery Natashquan Airport Heath Point Miscou Island Grand Étang Ingonish Beach North Mountain St.Paul Island J.A. Douglas McCurdy Sydney Airport Charlottetown Airport East Point North Cape Argentia Bonavista Burgeo Cape Race Corner Brook Daniel's Harbour Englee Ferolle Point La Scie Port aux Basques Rocky Harbour Sagona Island St. Anthony Airport St. John's Int'l Airport St. Lawrence Stephenville Airport Twillingate Winterland Wreckhouse Cartwright Airport Mary's Harbour Grates Cove Pool's Island Marticot Island Long Pond Îles de la Madeleine Airport
Legend:
buoy Buoy
land station Land Station

Atlantic - Newfoundland Area

Another Region

What we are doing

Date modified: